sensor_id;sensor_type;location;lat;lon;timestamp;temperature;humidity
2967;DHT22;1493;51.496;7.210;2023-05-31T00:00:34;14.20;99.90
2967;DHT22;1493;51.496;7.210;2023-05-31T00:03:01;14.20;1.00
2967;DHT22;1493;51.496;7.210;2023-05-31T00:05:28;14.20;99.90
2967;DHT22;1493;51.496;7.210;2023-05-31T00:07:55;14.10;1.00
2967;DHT22;1493;51.496;7.210;2023-05-31T00:10:23;14.10;1.00
2967;DHT22;1493;51.496;7.210;2023-05-31T00:12:49;14.10;1.00
2967;DHT22;1493;51.496;7.210;2023-05-31T00:15:16;14.10;1.00
2967;DHT22;1493;51.496;7.210;2023-05-31T00:17:43;14.00;1.00
2967;DHT22;1493;51.496;7.210;2023-05-31T00:20:10;14.00;1.00
2967;DHT22;1493;51.496;7.210;2023-05-31T00:22:37;13.90;1.00
2967;DHT22;1493;51.496;7.210;2023-05-31T00:25:04;13.90;1.00
2967;DHT22;1493;51.496;7.210;2023-05-31T00:27:32;13.80;1.00
2967;DHT22;1493;51.496;7.210;2023-05-31T00:29:59;13.80;1.00
2967;DHT22;1493;51.496;7.210;2023-05-31T00:32:26;13.80;1.00
2967;DHT22;1493;51.496;7.210;2023-05-31T00:34:53;13.70;1.00
2967;DHT22;1493;51.496;7.210;2023-05-31T00:37:20;13.70;1.00
2967;DHT22;1493;51.496;7.210;2023-05-31T00:39:47;13.60;1.00
2967;DHT22;1493;51.496;7.210;2023-05-31T00:42:14;13.60;1.00
2967;DHT22;1493;51.496;7.210;2023-05-31T00:44:42;13.60;1.00
2967;DHT22;1493;51.496;7.210;2023-05-31T00:47:09;13.60;1.00
2967;DHT22;1493;51.496;7.210;2023-05-31T00:49:36;13.60;1.00
2967;DHT22;1493;51.496;7.210;2023-05-31T00:52:03;13.60;1.00
2967;DHT22;1493;51.496;7.210;2023-05-31T00:54:31;13.60;1.00
2967;DHT22;1493;51.496;7.210;2023-05-31T00:56:58;13.60;1.00
2967;DHT22;1493;51.496;7.210;2023-05-31T00:59:25;13.50;1.00
2967;DHT22;1493;51.496;7.210;2023-05-31T01:01:54;13.60;1.00
2967;DHT22;1493;51.496;7.210;2023-05-31T01:04:22;13.60;1.00
2967;DHT22;1493;51.496;7.210;2023-05-31T01:06:49;13.60;1.00
2967;DHT22;1493;51.496;7.210;2023-05-31T01:09:17;13.50;1.00
2967;DHT22;1493;51.496;7.210;2023-05-31T01:11:52;13.50;1.00
2967;DHT22;1493;51.496;7.210;2023-05-31T01:14:26;13.50;1.00
2967;DHT22;1493;51.496;7.210;2023-05-31T01:17:16;13.50;1.00
2967;DHT22;1493;51.496;7.210;2023-05-31T01:19:52;13.50;1.00
2967;DHT22;1493;51.496;7.210;2023-05-31T01:22:40;13.40;1.00
2967;DHT22;1493;51.496;7.210;2023-05-31T01:25:46;13.40;1.00
2967;DHT22;1493;51.496;7.210;2023-05-31T01:28:21;13.40;1.00
2967;DHT22;1493;51.496;7.210;2023-05-31T01:30:50;13.30;1.00
2967;DHT22;1493;51.496;7.210;2023-05-31T01:33:19;13.40;1.00
2967;DHT22;1493;51.496;7.210;2023-05-31T01:35:47;13.30;1.00
2967;DHT22;1493;51.496;7.210;2023-05-31T01:38:14;13.30;1.00
2967;DHT22;1493;51.496;7.210;2023-05-31T01:40:40;13.30;1.00
2967;DHT22;1493;51.496;7.210;2023-05-31T01:43:08;13.30;1.00
2967;DHT22;1493;51.496;7.210;2023-05-31T01:45:37;13.30;1.00
2967;DHT22;1493;51.496;7.210;2023-05-31T01:48:07;13.30;1.00
2967;DHT22;1493;51.496;7.210;2023-05-31T01:50:35;13.30;1.00
2967;DHT22;1493;51.496;7.210;2023-05-31T01:53:03;13.30;1.00
2967;DHT22;1493;51.496;7.210;2023-05-31T01:55:30;13.30;1.00
2967;DHT22;1493;51.496;7.210;2023-05-31T01:57:57;13.20;1.00
2967;DHT22;1493;51.496;7.210;2023-05-31T02:00:24;13.20;1.00
2967;DHT22;1493;51.496;7.210;2023-05-31T02:02:53;13.20;1.00
2967;DHT22;1493;51.496;7.210;2023-05-31T02:05:20;13.20;1.00
2967;DHT22;1493;51.496;7.210;2023-05-31T02:07:47;13.20;1.00
2967;DHT22;1493;51.496;7.210;2023-05-31T02:10:15;13.20;1.00
2967;DHT22;1493;51.496;7.210;2023-05-31T02:12:42;13.20;1.00
2967;DHT22;1493;51.496;7.210;2023-05-31T02:15:09;13.20;1.00
2967;DHT22;1493;51.496;7.210;2023-05-31T02:17:38;13.20;1.00
2967;DHT22;1493;51.496;7.210;2023-05-31T02:20:08;13.10;1.00
2967;DHT22;1493;51.496;7.210;2023-05-31T02:22:35;13.10;1.00
2967;DHT22;1493;51.496;7.210;2023-05-31T02:25:02;13.00;1.00
2967;DHT22;1493;51.496;7.210;2023-05-31T02:27:30;13.00;1.00
2967;DHT22;1493;51.496;7.210;2023-05-31T02:29:57;12.90;1.00
2967;DHT22;1493;51.496;7.210;2023-05-31T02:32:24;13.00;1.00
2967;DHT22;1493;51.496;7.210;2023-05-31T02:34:51;12.90;1.00
2967;DHT22;1493;51.496;7.210;2023-05-31T02:37:19;12.90;1.00
2967;DHT22;1493;51.496;7.210;2023-05-31T02:39:46;12.90;1.00
2967;DHT22;1493;51.496;7.210;2023-05-31T02:42:13;12.90;1.00
2967;DHT22;1493;51.496;7.210;2023-05-31T02:44:40;12.80;1.00
2967;DHT22;1493;51.496;7.210;2023-05-31T02:47:07;12.80;1.00
2967;DHT22;1493;51.496;7.210;2023-05-31T02:49:34;12.80;1.00
2967;DHT22;1493;51.496;7.210;2023-05-31T02:52:00;12.70;1.00
2967;DHT22;1493;51.496;7.210;2023-05-31T02:54:28;12.70;1.00
2967;DHT22;1493;51.496;7.210;2023-05-31T02:56:55;12.70;1.00
2967;DHT22;1493;51.496;7.210;2023-05-31T02:59:23;12.70;1.00
2967;DHT22;1493;51.496;7.210;2023-05-31T03:01:50;12.70;1.00
2967;DHT22;1493;51.496;7.210;2023-05-31T03:04:17;12.60;1.00
2967;DHT22;1493;51.496;7.210;2023-05-31T03:06:44;12.60;1.00
2967;DHT22;1493;51.496;7.210;2023-05-31T03:09:11;12.60;1.00
2967;DHT22;1493;51.496;7.210;2023-05-31T03:11:43;12.60;1.00
2967;DHT22;1493;51.496;7.210;2023-05-31T03:14:10;12.60;1.00
2967;DHT22;1493;51.496;7.210;2023-05-31T03:16:37;12.60;1.00
2967;DHT22;1493;51.496;7.210;2023-05-31T03:19:03;12.60;1.00
2967;DHT22;1493;51.496;7.210;2023-05-31T03:21:30;12.60;1.00
2967;DHT22;1493;51.496;7.210;2023-05-31T03:23:57;12.60;1.00
2967;DHT22;1493;51.496;7.210;2023-05-31T03:26:24;12.60;1.00
2967;DHT22;1493;51.496;7.210;2023-05-31T03:28:52;12.60;1.00
2967;DHT22;1493;51.496;7.210;2023-05-31T03:31:19;12.50;1.00
2967;DHT22;1493;51.496;7.210;2023-05-31T03:33:46;12.50;1.00
2967;DHT22;1493;51.496;7.210;2023-05-31T03:36:13;12.40;1.00
2967;DHT22;1493;51.496;7.210;2023-05-31T03:38:40;12.40;1.00
2967;DHT22;1493;51.496;7.210;2023-05-31T03:41:06;12.40;1.00
2967;DHT22;1493;51.496;7.210;2023-05-31T03:43:33;12.40;1.00
2967;DHT22;1493;51.496;7.210;2023-05-31T03:46:02;12.40;1.00
2967;DHT22;1493;51.496;7.210;2023-05-31T03:48:29;12.40;1.00
2967;DHT22;1493;51.496;7.210;2023-05-31T03:50:56;12.40;1.00
2967;DHT22;1493;51.496;7.210;2023-05-31T03:53:23;12.40;1.00
2967;DHT22;1493;51.496;7.210;2023-05-31T03:55:50;12.40;3.30
2967;DHT22;1493;51.496;7.210;2023-05-31T03:58:17;12.40;9.90
2967;DHT22;1493;51.496;7.210;2023-05-31T04:00:44;12.40;12.40
2967;DHT22;1493;51.496;7.210;2023-05-31T04:03:12;12.50;28.40
2967;DHT22;1493;51.496;7.210;2023-05-31T04:05:39;12.40;35.80
2967;DHT22;1493;51.496;7.210;2023-05-31T04:08:06;12.50;41.40
2967;DHT22;1493;51.496;7.210;2023-05-31T04:10:33;12.50;46.00
2967;DHT22;1493;51.496;7.210;2023-05-31T04:13:00;12.50;52.50
2967;DHT22;1493;51.496;7.210;2023-05-31T04:15:27;12.60;55.00
2967;DHT22;1493;51.496;7.210;2023-05-31T04:17:54;12.50;58.90
2967;DHT22;1493;51.496;7.210;2023-05-31T04:20:23;12.60;52.90
2967;DHT22;1493;51.496;7.210;2023-05-31T04:22:50;12.60;58.40
2967;DHT22;1493;51.496;7.210;2023-05-31T04:25:18;12.70;64.50
2967;DHT22;1493;51.496;7.210;2023-05-31T04:27:45;12.80;51.20
2967;DHT22;1493;51.496;7.210;2023-05-31T04:30:13;12.80;46.20
2967;DHT22;1493;51.496;7.210;2023-05-31T04:32:40;12.90;40.60
2967;DHT22;1493;51.496;7.210;2023-05-31T04:35:07;12.90;30.80
2967;DHT22;1493;51.496;7.210;2023-05-31T04:37:36;13.00;29.20
2967;DHT22;1493;51.496;7.210;2023-05-31T04:40:03;13.00;37.40
2967;DHT22;1493;51.496;7.210;2023-05-31T04:42:34;13.10;21.10
2967;DHT22;1493;51.496;7.210;2023-05-31T04:45:02;13.10;12.40
2967;DHT22;1493;51.496;7.210;2023-05-31T04:47:29;13.20;18.50
2967;DHT22;1493;51.496;7.210;2023-05-31T04:49:57;13.20;12.00
2967;DHT22;1493;51.496;7.210;2023-05-31T04:52:25;13.30;8.90
2967;DHT22;1493;51.496;7.210;2023-05-31T04:54:56;13.30;1.00
2967;DHT22;1493;51.496;7.210;2023-05-31T04:57:24;13.40;1.00
2967;DHT22;1493;51.496;7.210;2023-05-31T04:59:52;13.40;1.00
2967;DHT22;1493;51.496;7.210;2023-05-31T05:02:19;13.40;1.00
2967;DHT22;1493;51.496;7.210;2023-05-31T05:04:46;13.50;1.00
2967;DHT22;1493;51.496;7.210;2023-05-31T05:07:14;13.60;1.00
2967;DHT22;1493;51.496;7.210;2023-05-31T05:09:41;13.60;1.00
2967;DHT22;1493;51.496;7.210;2023-05-31T05:12:10;13.70;1.00
2967;DHT22;1493;51.496;7.210;2023-05-31T05:14:37;13.80;1.00
2967;DHT22;1493;51.496;7.210;2023-05-31T05:17:04;13.80;1.00
2967;DHT22;1493;51.496;7.210;2023-05-31T05:19:31;13.90;1.00
2967;DHT22;1493;51.496;7.210;2023-05-31T05:21:58;14.00;1.00
2967;DHT22;1493;51.496;7.210;2023-05-31T05:24:25;14.00;1.00
2967;DHT22;1493;51.496;7.210;2023-05-31T05:26:52;14.10;1.00
2967;DHT22;1493;51.496;7.210;2023-05-31T05:29:20;14.20;1.00
2967;DHT22;1493;51.496;7.210;2023-05-31T05:31:47;14.20;1.00
2967;DHT22;1493;51.496;7.210;2023-05-31T05:34:14;14.30;1.00
2967;DHT22;1493;51.496;7.210;2023-05-31T05:36:41;14.30;1.00
2967;DHT22;1493;51.496;7.210;2023-05-31T05:39:07;14.40;1.00
2967;DHT22;1493;51.496;7.210;2023-05-31T05:41:35;14.50;1.00
2967;DHT22;1493;51.496;7.210;2023-05-31T05:44:01;14.50;1.00
2967;DHT22;1493;51.496;7.210;2023-05-31T05:46:30;14.60;1.00
2967;DHT22;1493;51.496;7.210;2023-05-31T05:48:57;14.70;1.00
2967;DHT22;1493;51.496;7.210;2023-05-31T05:51:23;14.80;1.00
2967;DHT22;1493;51.496;7.210;2023-05-31T05:53:50;14.80;1.00
2967;DHT22;1493;51.496;7.210;2023-05-31T05:56:17;14.90;1.00
2967;DHT22;1493;51.496;7.210;2023-05-31T05:58:44;14.90;1.00
2967;DHT22;1493;51.496;7.210;2023-05-31T06:01:12;15.00;1.00
2967;DHT22;1493;51.496;7.210;2023-05-31T06:03:46;15.00;1.00
2967;DHT22;1493;51.496;7.210;2023-05-31T06:06:14;15.20;1.00
2967;DHT22;1493;51.496;7.210;2023-05-31T06:08:42;15.20;1.00
2967;DHT22;1493;51.496;7.210;2023-05-31T06:11:09;15.30;1.00
2967;DHT22;1493;51.496;7.210;2023-05-31T06:13:36;15.30;99.90
2967;DHT22;1493;51.496;7.210;2023-05-31T06:16:03;15.40;99.90
2967;DHT22;1493;51.496;7.210;2023-05-31T06:18:30;15.40;99.90
2967;DHT22;1493;51.496;7.210;2023-05-31T06:20:59;15.50;99.90
2967;DHT22;1493;51.496;7.210;2023-05-31T06:23:25;15.60;99.90
2967;DHT22;1493;51.496;7.210;2023-05-31T06:25:52;15.70;99.90
2967;DHT22;1493;51.496;7.210;2023-05-31T06:28:19;15.70;99.90
2967;DHT22;1493;51.496;7.210;2023-05-31T06:30:46;15.80;99.90
2967;DHT22;1493;51.496;7.210;2023-05-31T06:33:13;15.90;99.90
2967;DHT22;1493;51.496;7.210;2023-05-31T06:35:40;16.00;99.90
2967;DHT22;1493;51.496;7.210;2023-05-31T06:38:09;16.10;99.90
2967;DHT22;1493;51.496;7.210;2023-05-31T06:40:40;16.20;81.20
2967;DHT22;1493;51.496;7.210;2023-05-31T06:43:07;16.20;1.00
2967;DHT22;1493;51.496;7.210;2023-05-31T06:45:34;16.20;99.90
2967;DHT22;1493;51.496;7.210;2023-05-31T06:48:01;16.30;1.00
2967;DHT22;1493;51.496;7.210;2023-05-31T06:50:28;16.40;99.90
2967;DHT22;1493;51.496;7.210;2023-05-31T06:52:55;16.40;99.90
2967;DHT22;1493;51.496;7.210;2023-05-31T06:55:23;16.50;99.90
2967;DHT22;1493;51.496;7.210;2023-05-31T06:57:50;16.60;99.90
2967;DHT22;1493;51.496;7.210;2023-05-31T07:00:17;16.70;22.20
2967;DHT22;1493;51.496;7.210;2023-05-31T07:02:44;16.70;99.90
2967;DHT22;1493;51.496;7.210;2023-05-31T07:05:11;16.80;99.90
2967;DHT22;1493;51.496;7.210;2023-05-31T07:07:38;16.90;99.90
2967;DHT22;1493;51.496;7.210;2023-05-31T07:10:06;16.90;1.00
2967;DHT22;1493;51.496;7.210;2023-05-31T07:12:34;16.90;99.90
2967;DHT22;1493;51.496;7.210;2023-05-31T07:15:01;17.00;44.90
2967;DHT22;1493;51.496;7.210;2023-05-31T07:17:27;17.10;1.00
2967;DHT22;1493;51.496;7.210;2023-05-31T07:19:55;17.20;1.00
2967;DHT22;1493;51.496;7.210;2023-05-31T07:22:22;17.30;99.90
2967;DHT22;1493;51.496;7.210;2023-05-31T07:24:49;17.50;99.90
2967;DHT22;1493;51.496;7.210;2023-05-31T07:27:16;17.60;99.90
2967;DHT22;1493;51.496;7.210;2023-05-31T07:29:44;17.70;99.90
2967;DHT22;1493;51.496;7.210;2023-05-31T07:32:11;17.80;19.30
2967;DHT22;1493;51.496;7.210;2023-05-31T07:34:37;17.80;99.90
2967;DHT22;1493;51.496;7.210;2023-05-31T07:37:05;17.70;1.00
2967;DHT22;1493;51.496;7.210;2023-05-31T07:39:32;17.70;1.00
2967;DHT22;1493;51.496;7.210;2023-05-31T07:41:59;17.90;1.00
2967;DHT22;1493;51.496;7.210;2023-05-31T07:44:26;18.00;99.90
2967;DHT22;1493;51.496;7.210;2023-05-31T07:46:54;18.10;1.00
2967;DHT22;1493;51.496;7.210;2023-05-31T07:49:21;18.30;1.00
2967;DHT22;1493;51.496;7.210;2023-05-31T07:51:48;18.40;1.00
2967;DHT22;1493;51.496;7.210;2023-05-31T07:54:15;18.50;1.00
2967;DHT22;1493;51.496;7.210;2023-05-31T07:56:42;18.70;99.90
2967;DHT22;1493;51.496;7.210;2023-05-31T07:59:09;18.80;29.70
2967;DHT22;1493;51.496;7.210;2023-05-31T08:01:36;18.90;1.00
2967;DHT22;1493;51.496;7.210;2023-05-31T08:04:08;19.10;1.00
2967;DHT22;1493;51.496;7.210;2023-05-31T08:06:35;19.10;99.90
2967;DHT22;1493;51.496;7.210;2023-05-31T08:09:03;19.20;99.90
2967;DHT22;1493;51.496;7.210;2023-05-31T08:11:32;19.30;99.90
2967;DHT22;1493;51.496;7.210;2023-05-31T08:14:00;19.50;99.90
2967;DHT22;1493;51.496;7.210;2023-05-31T08:16:28;19.60;99.90
2967;DHT22;1493;51.496;7.210;2023-05-31T08:18:54;19.80;99.90
2967;DHT22;1493;51.496;7.210;2023-05-31T08:21:23;19.90;99.90
2967;DHT22;1493;51.496;7.210;2023-05-31T08:23:50;20.00;99.90
2967;DHT22;1493;51.496;7.210;2023-05-31T08:26:16;20.10;99.90
2967;DHT22;1493;51.496;7.210;2023-05-31T08:28:43;20.30;55.10
2967;DHT22;1493;51.496;7.210;2023-05-31T08:31:10;20.50;1.00
2967;DHT22;1493;51.496;7.210;2023-05-31T08:33:37;20.70;1.00
2967;DHT22;1493;51.496;7.210;2023-05-31T08:36:06;21.00;1.00
2967;DHT22;1493;51.496;7.210;2023-05-31T08:38:34;21.20;1.00
2967;DHT22;1493;51.496;7.210;2023-05-31T08:41:02;21.50;1.00
2967;DHT22;1493;51.496;7.210;2023-05-31T08:43:30;21.70;1.00
2967;DHT22;1493;51.496;7.210;2023-05-31T08:45:57;22.00;1.00
2967;DHT22;1493;51.496;7.210;2023-05-31T08:48:30;22.40;1.00
2967;DHT22;1493;51.496;7.210;2023-05-31T08:50:58;22.80;1.00
2967;DHT22;1493;51.496;7.210;2023-05-31T08:53:26;23.20;1.00
2967;DHT22;1493;51.496;7.210;2023-05-31T08:55:54;23.50;99.90
2967;DHT22;1493;51.496;7.210;2023-05-31T08:58:22;23.70;99.90
2967;DHT22;1493;51.496;7.210;2023-05-31T09:00:50;23.90;99.90
2967;DHT22;1493;51.496;7.210;2023-05-31T09:03:17;23.90;99.90
2967;DHT22;1493;51.496;7.210;2023-05-31T09:05:44;24.20;99.90
2967;DHT22;1493;51.496;7.210;2023-05-31T09:08:11;24.40;99.90
2967;DHT22;1493;51.496;7.210;2023-05-31T09:10:39;24.60;99.90
2967;DHT22;1493;51.496;7.210;2023-05-31T09:13:08;24.70;99.90
2967;DHT22;1493;51.496;7.210;2023-05-31T09:15:36;24.70;99.90
2967;DHT22;1493;51.496;7.210;2023-05-31T09:18:12;24.70;99.90
2967;DHT22;1493;51.496;7.210;2023-05-31T09:20:40;24.60;99.90
2967;DHT22;1493;51.496;7.210;2023-05-31T09:23:08;24.60;99.90
2967;DHT22;1493;51.496;7.210;2023-05-31T09:25:46;24.80;99.90
2967;DHT22;1493;51.496;7.210;2023-05-31T09:28:14;24.90;99.90
2967;DHT22;1493;51.496;7.210;2023-05-31T09:30:41;24.90;99.90
2967;DHT22;1493;51.496;7.210;2023-05-31T09:33:09;24.90;99.90
2967;DHT22;1493;51.496;7.210;2023-05-31T09:35:36;25.00;99.90
2967;DHT22;1493;51.496;7.210;2023-05-31T09:38:06;25.00;99.90
2967;DHT22;1493;51.496;7.210;2023-05-31T09:40:33;25.20;99.90
2967;DHT22;1493;51.496;7.210;2023-05-31T09:43:00;25.20;99.90
2967;DHT22;1493;51.496;7.210;2023-05-31T09:45:29;25.30;99.90
2967;DHT22;1493;51.496;7.210;2023-05-31T09:47:56;25.50;99.90
2967;DHT22;1493;51.496;7.210;2023-05-31T09:50:23;25.60;99.90
2967;DHT22;1493;51.496;7.210;2023-05-31T09:52:55;25.80;99.90
2967;DHT22;1493;51.496;7.210;2023-05-31T09:55:23;25.80;99.90
2967;DHT22;1493;51.496;7.210;2023-05-31T09:57:52;25.90;99.90
2967;DHT22;1493;51.496;7.210;2023-05-31T10:00:20;26.10;99.90
2967;DHT22;1493;51.496;7.210;2023-05-31T10:02:53;26.30;99.90
2967;DHT22;1493;51.496;7.210;2023-05-31T10:05:21;26.50;99.90
2967;DHT22;1493;51.496;7.210;2023-05-31T10:07:49;26.70;99.90
2967;DHT22;1493;51.496;7.210;2023-05-31T10:10:16;26.90;99.90
2967;DHT22;1493;51.496;7.210;2023-05-31T10:12:49;27.00;99.90
2967;DHT22;1493;51.496;7.210;2023-05-31T10:15:19;27.10;99.90
2967;DHT22;1493;51.496;7.210;2023-05-31T10:17:57;27.40;99.90
2967;DHT22;1493;51.496;7.210;2023-05-31T10:20:28;27.60;99.90
2967;DHT22;1493;51.496;7.210;2023-05-31T10:22:58;27.80;99.90
2967;DHT22;1493;51.496;7.210;2023-05-31T10:25:30;27.90;99.90
2967;DHT22;1493;51.496;7.210;2023-05-31T10:28:01;27.90;99.90
2967;DHT22;1493;51.496;7.210;2023-05-31T10:30:34;28.30;99.90
2967;DHT22;1493;51.496;7.210;2023-05-31T10:33:06;28.40;99.90
2967;DHT22;1493;51.496;7.210;2023-05-31T10:35:34;28.50;99.90
2967;DHT22;1493;51.496;7.210;2023-05-31T10:38:01;28.40;99.90
2967;DHT22;1493;51.496;7.210;2023-05-31T10:40:33;28.30;99.90
2967;DHT22;1493;51.496;7.210;2023-05-31T10:43:07;28.70;99.90
2967;DHT22;1493;51.496;7.210;2023-05-31T10:45:38;28.90;99.90
2967;DHT22;1493;51.496;7.210;2023-05-31T10:48:27;29.10;99.90
2967;DHT22;1493;51.496;7.210;2023-05-31T10:51:00;29.00;99.90
2967;DHT22;1493;51.496;7.210;2023-05-31T10:53:28;28.90;99.90
2967;DHT22;1493;51.496;7.210;2023-05-31T10:56:01;29.10;99.90
2967;DHT22;1493;51.496;7.210;2023-05-31T10:58:31;29.50;99.90
2967;DHT22;1493;51.496;7.210;2023-05-31T11:01:03;29.60;99.90
2967;DHT22;1493;51.496;7.210;2023-05-31T11:03:33;29.80;99.90
2967;DHT22;1493;51.496;7.210;2023-05-31T11:06:01;30.00;99.90
2967;DHT22;1493;51.496;7.210;2023-05-31T11:08:30;30.10;99.90
2967;DHT22;1493;51.496;7.210;2023-05-31T11:11:42;30.10;99.90
2967;DHT22;1493;51.496;7.210;2023-05-31T11:14:24;30.10;99.90
2967;DHT22;1493;51.496;7.210;2023-05-31T11:17:17;30.10;99.90
2967;DHT22;1493;51.496;7.210;2023-05-31T11:19:51;30.40;99.90
2967;DHT22;1493;51.496;7.210;2023-05-31T11:22:24;30.40;99.90
2967;DHT22;1493;51.496;7.210;2023-05-31T11:24:53;30.30;99.90
2967;DHT22;1493;51.496;7.210;2023-05-31T11:27:21;30.60;99.90
2967;DHT22;1493;51.496;7.210;2023-05-31T11:29:58;30.60;99.90
2967;DHT22;1493;51.496;7.210;2023-05-31T11:32:54;31.00;99.90
2967;DHT22;1493;51.496;7.210;2023-05-31T11:35:22;31.20;99.90
2967;DHT22;1493;51.496;7.210;2023-05-31T11:37:50;31.40;99.90
2967;DHT22;1493;51.496;7.210;2023-05-31T11:40:25;31.30;99.90
2967;DHT22;1493;51.496;7.210;2023-05-31T11:42:53;31.50;99.90
2967;DHT22;1493;51.496;7.210;2023-05-31T11:45:23;31.80;99.90
2967;DHT22;1493;51.496;7.210;2023-05-31T11:47:59;31.90;99.90
2967;DHT22;1493;51.496;7.210;2023-05-31T11:50:31;32.30;99.90
2967;DHT22;1493;51.496;7.210;2023-05-31T11:53:01;32.50;99.90
2967;DHT22;1493;51.496;7.210;2023-05-31T11:55:30;32.70;99.90
2967;DHT22;1493;51.496;7.210;2023-05-31T11:57:58;32.90;99.90
2967;DHT22;1493;51.496;7.210;2023-05-31T12:00:26;33.00;99.90
2967;DHT22;1493;51.496;7.210;2023-05-31T12:02:55;33.10;99.90
2967;DHT22;1493;51.496;7.210;2023-05-31T12:05:23;33.40;99.90
2967;DHT22;1493;51.496;7.210;2023-05-31T12:07:54;33.60;99.90
2967;DHT22;1493;51.496;7.210;2023-05-31T12:10:25;33.40;99.90
2967;DHT22;1493;51.496;7.210;2023-05-31T12:12:52;33.20;99.90
2967;DHT22;1493;51.496;7.210;2023-05-31T12:15:19;33.10;99.90
2967;DHT22;1493;51.496;7.210;2023-05-31T12:17:46;33.20;99.90
2967;DHT22;1493;51.496;7.210;2023-05-31T12:20:13;33.20;99.90
2967;DHT22;1493;51.496;7.210;2023-05-31T12:22:40;33.60;99.90
2967;DHT22;1493;51.496;7.210;2023-05-31T12:25:09;33.80;99.90
2967;DHT22;1493;51.496;7.210;2023-05-31T12:27:36;33.40;99.90
2967;DHT22;1493;51.496;7.210;2023-05-31T12:30:04;33.80;99.90
2967;DHT22;1493;51.496;7.210;2023-05-31T12:32:31;33.80;99.90
2967;DHT22;1493;51.496;7.210;2023-05-31T12:35:05;34.00;99.90
2967;DHT22;1493;51.496;7.210;2023-05-31T12:37:33;34.10;99.90
2967;DHT22;1493;51.496;7.210;2023-05-31T12:40:09;34.40;99.90
2967;DHT22;1493;51.496;7.210;2023-05-31T12:42:37;34.80;99.90
2967;DHT22;1493;51.496;7.210;2023-05-31T12:45:04;34.70;99.90
2967;DHT22;1493;51.496;7.210;2023-05-31T12:47:32;34.60;99.90
2967;DHT22;1493;51.496;7.210;2023-05-31T12:50:04;34.70;99.90
2967;DHT22;1493;51.496;7.210;2023-05-31T12:52:33;34.80;99.90
2967;DHT22;1493;51.496;7.210;2023-05-31T12:55:00;34.90;99.90
2967;DHT22;1493;51.496;7.210;2023-05-31T12:57:29;34.90;99.90
2967;DHT22;1493;51.496;7.210;2023-05-31T12:59:59;35.20;99.90
2967;DHT22;1493;51.496;7.210;2023-05-31T13:02:27;35.60;99.90
2967;DHT22;1493;51.496;7.210;2023-05-31T13:04:54;35.50;99.90
2967;DHT22;1493;51.496;7.210;2023-05-31T13:07:21;35.30;99.90
2967;DHT22;1493;51.496;7.210;2023-05-31T13:09:48;35.50;99.90
2967;DHT22;1493;51.496;7.210;2023-05-31T13:12:15;35.80;99.90
2967;DHT22;1493;51.496;7.210;2023-05-31T13:14:43;35.60;99.90
2967;DHT22;1493;51.496;7.210;2023-05-31T13:17:10;36.10;99.90
2967;DHT22;1493;51.496;7.210;2023-05-31T13:19:37;36.30;99.90
2967;DHT22;1493;51.496;7.210;2023-05-31T13:22:04;36.20;99.90
2967;DHT22;1493;51.496;7.210;2023-05-31T13:24:31;35.80;99.90
2967;DHT22;1493;51.496;7.210;2023-05-31T13:26:58;35.00;99.90
2967;DHT22;1493;51.496;7.210;2023-05-31T13:29:25;35.30;99.90
2967;DHT22;1493;51.496;7.210;2023-05-31T13:31:53;35.60;99.90
2967;DHT22;1493;51.496;7.210;2023-05-31T13:34:19;35.70;99.90
2967;DHT22;1493;51.496;7.210;2023-05-31T13:36:47;35.70;99.90
2967;DHT22;1493;51.496;7.210;2023-05-31T13:39:14;36.20;99.90
2967;DHT22;1493;51.496;7.210;2023-05-31T13:41:41;35.90;99.90
2967;DHT22;1493;51.496;7.210;2023-05-31T13:44:08;36.20;99.90
2967;DHT22;1493;51.496;7.210;2023-05-31T13:46:36;36.50;99.90
2967;DHT22;1493;51.496;7.210;2023-05-31T13:49:05;35.60;99.90
2967;DHT22;1493;51.496;7.210;2023-05-31T13:51:32;35.80;99.90
2967;DHT22;1493;51.496;7.210;2023-05-31T13:53:59;36.20;99.90
2967;DHT22;1493;51.496;7.210;2023-05-31T13:56:26;35.70;99.90
2967;DHT22;1493;51.496;7.210;2023-05-31T13:58:53;35.60;99.90
2967;DHT22;1493;51.496;7.210;2023-05-31T14:01:20;36.00;99.90
2967;DHT22;1493;51.496;7.210;2023-05-31T14:03:47;35.90;99.90
2967;DHT22;1493;51.496;7.210;2023-05-31T14:06:15;36.40;99.90
2967;DHT22;1493;51.496;7.210;2023-05-31T14:08:42;36.80;99.90
2967;DHT22;1493;51.496;7.210;2023-05-31T14:11:09;37.10;99.90
2967;DHT22;1493;51.496;7.210;2023-05-31T14:13:38;37.30;99.90
2967;DHT22;1493;51.496;7.210;2023-05-31T14:16:05;37.10;99.90
2967;DHT22;1493;51.496;7.210;2023-05-31T14:18:32;36.90;99.90
2967;DHT22;1493;51.496;7.210;2023-05-31T14:20:59;37.10;99.90
2967;DHT22;1493;51.496;7.210;2023-05-31T14:23:27;36.30;99.90
2967;DHT22;1493;51.496;7.210;2023-05-31T14:25:54;36.70;99.90
2967;DHT22;1493;51.496;7.210;2023-05-31T14:28:21;36.70;99.90
2967;DHT22;1493;51.496;7.210;2023-05-31T14:30:48;37.00;99.90
2967;DHT22;1493;51.496;7.210;2023-05-31T14:33:15;36.90;99.90
2967;DHT22;1493;51.496;7.210;2023-05-31T14:35:42;37.00;99.90
2967;DHT22;1493;51.496;7.210;2023-05-31T14:38:08;37.00;99.90
2967;DHT22;1493;51.496;7.210;2023-05-31T14:40:36;37.40;99.90
2967;DHT22;1493;51.496;7.210;2023-05-31T14:43:03;37.20;99.90
2967;DHT22;1493;51.496;7.210;2023-05-31T14:45:30;37.40;99.90
2967;DHT22;1493;51.496;7.210;2023-05-31T14:47:57;37.10;99.90
2967;DHT22;1493;51.496;7.210;2023-05-31T14:50:25;36.40;99.90
2967;DHT22;1493;51.496;7.210;2023-05-31T14:52:52;35.00;99.90
2967;DHT22;1493;51.496;7.210;2023-05-31T14:55:19;34.30;99.90
2967;DHT22;1493;51.496;7.210;2023-05-31T14:57:47;33.90;99.90
2967;DHT22;1493;51.496;7.210;2023-05-31T15:00:14;34.30;99.90
2967;DHT22;1493;51.496;7.210;2023-05-31T15:02:41;34.80;99.90
2967;DHT22;1493;51.496;7.210;2023-05-31T15:05:09;34.80;99.90
2967;DHT22;1493;51.496;7.210;2023-05-31T15:07:36;35.40;99.90
2967;DHT22;1493;51.496;7.210;2023-05-31T15:10:03;35.30;99.90
2967;DHT22;1493;51.496;7.210;2023-05-31T15:12:30;35.10;99.90
2967;DHT22;1493;51.496;7.210;2023-05-31T15:14:58;35.80;99.90
2967;DHT22;1493;51.496;7.210;2023-05-31T15:17:25;36.10;99.90
2967;DHT22;1493;51.496;7.210;2023-05-31T15:19:52;36.60;99.90
2967;DHT22;1493;51.496;7.210;2023-05-31T15:22:19;36.90;99.90
2967;DHT22;1493;51.496;7.210;2023-05-31T15:24:46;37.00;99.90
2967;DHT22;1493;51.496;7.210;2023-05-31T15:27:13;36.60;99.90
2967;DHT22;1493;51.496;7.210;2023-05-31T15:29:39;37.00;99.90
2967;DHT22;1493;51.496;7.210;2023-05-31T15:32:08;36.80;99.90
2967;DHT22;1493;51.496;7.210;2023-05-31T15:34:35;36.60;99.90
2967;DHT22;1493;51.496;7.210;2023-05-31T15:37:01;36.80;99.90
2967;DHT22;1493;51.496;7.210;2023-05-31T15:39:28;36.50;99.90
2967;DHT22;1493;51.496;7.210;2023-05-31T15:41:55;36.30;99.90
2967;DHT22;1493;51.496;7.210;2023-05-31T15:44:22;35.90;99.90
2967;DHT22;1493;51.496;7.210;2023-05-31T15:46:49;36.00;99.90
2967;DHT22;1493;51.496;7.210;2023-05-31T15:49:17;35.40;99.90
2967;DHT22;1493;51.496;7.210;2023-05-31T15:51:44;34.90;99.90
2967;DHT22;1493;51.496;7.210;2023-05-31T15:54:11;35.00;99.90
2967;DHT22;1493;51.496;7.210;2023-05-31T15:56:37;35.20;99.90
2967;DHT22;1493;51.496;7.210;2023-05-31T15:59:04;35.20;99.90
2967;DHT22;1493;51.496;7.210;2023-05-31T16:01:31;34.80;99.90
2967;DHT22;1493;51.496;7.210;2023-05-31T16:03:58;34.40;99.90
2967;DHT22;1493;51.496;7.210;2023-05-31T16:06:26;34.00;99.90
2967;DHT22;1493;51.496;7.210;2023-05-31T16:08:53;33.40;99.90
2967;DHT22;1493;51.496;7.210;2023-05-31T16:11:22;32.60;99.90
2967;DHT22;1493;51.496;7.210;2023-05-31T16:13:49;32.00;99.90